Time,TemperatureF,DewpointF,PressureIn,WindDirection,WindDirectionDegrees,WindSpeedMPH,WindSpeedGustMPH,Humidity,HourlyPrecipIn,Conditions,Clouds,dailyrainin,SoftwareType,DateUTC
2013-01-19 00:22:00,15.0,7.0,30.43,North,-999,0.0,0.0,70,0.00,,,-99.99,,2013-01-19 08:22:00,
2013-01-19 00:32:00,15.0,7.0,30.43,North,-999,0.0,0.0,70,0.00,,,-99.99,,2013-01-19 08:32:00,
2013-01-19 01:22:00,13.0,5.0,30.46,North,-999,0.0,0.0,69,0.00,,,-99.99,,2013-01-19 09:22:00,
2013-01-19 01:32:00,13.0,5.0,30.46,North,-999,0.0,0.0,69,0.00,,,-99.99,,2013-01-19 09:32:00,
2013-01-19 02:22:00,12.0,3.0,30.47,North,-999,0.0,0.0,66,0.00,,,-99.99,,2013-01-19 10:22:00,
2013-01-19 02:32:00,12.0,3.0,30.47,North,-999,0.0,0.0,66,0.00,,,-99.99,,2013-01-19 10:32:00,
2013-01-19 05:22:00,10.0,3.0,30.60,North,-999,0.0,0.0,71,0.00,,,-99.99,,2013-01-19 13:22:00,
2013-01-19 05:33:00,10.0,3.0,30.60,North,-999,0.0,0.0,71,0.00,,,-99.99,,2013-01-19 13:33:00,
2013-01-19 06:23:00,8.0,1.0,30.69,North,-999,0.0,0.0,71,0.00,,,-99.99,,2013-01-19 14:23:00,
2013-01-19 06:33:00,8.0,1.0,30.69,North,-999,0.0,0.0,71,0.00,,,-99.99,,2013-01-19 14:33:00,
2013-01-19 07:22:00,8.0,1.0,30.72,North,-999,0.0,0.0,72,0.00,,,-99.99,,2013-01-19 15:22:00,
2013-01-19 07:33:00,8.0,1.0,30.72,North,-999,0.0,0.0,72,0.00,,,-99.99,,2013-01-19 15:33:00,
2013-01-19 08:23:00,10.0,2.0,30.73,North,-999,0.0,0.0,68,0.00,,,-99.99,,2013-01-19 16:23:00,
2013-01-19 08:33:00,10.0,2.0,30.73,North,-999,0.0,0.0,68,0.00,,,-99.99,,2013-01-19 16:33:00,
2013-01-19 09:27:00,21.0,10.0,30.67,North,-999,0.0,0.0,61,0.00,,,-99.99,,2013-01-19 17:27:00,
2013-01-19 09:34:00,21.0,10.0,30.67,North,-999,0.0,0.0,61,0.00,,,-99.99,,2013-01-19 17:34:00,
2013-01-19 10:25:00,33.0,14.0,30.59,North,10,1.0,3.0,46,0.00,,,-99.99,,2013-01-19 18:25:00,
2013-01-19 10:34:00,33.0,14.0,30.59,North,10,1.0,3.0,46,0.00,,,-99.99,,2013-01-19 18:34:00,
2013-01-19 11:37:00,47.0,0.0,30.48,NE,50,6.0,8.0,14,0.00,,,-99.99,,2013-01-19 19:37:00,
2013-01-19 12:24:00,49.0,-5.0,30.45,NE,50,8.0,12.0,10,0.00,,,-99.99,,2013-01-19 20:24:00,
2013-01-19 12:36:00,49.0,-5.0,30.45,NE,50,8.0,12.0,10,0.00,,,-99.99,,2013-01-19 20:36:00,
2013-01-19 12:45:00,48.0,-2.0,30.44,NE,40,6.0,12.0,12,0.00,,,-99.99,,2013-01-19 20:45:00,
2013-01-19 13:25:00,48.0,-2.0,30.44,NE,40,6.0,12.0,12,0.00,,,-99.99,,2013-01-19 21:25:00,
2013-01-19 13:45:00,46.0,1.0,30.45,NE,40,6.0,11.0,15,0.00,,,-99.99,,2013-01-19 21:45:00,
2013-01-19 14:25:00,46.0,1.0,30.45,NE,40,6.0,11.0,15,0.00,,,-99.99,,2013-01-19 22:25:00,
2013-01-19 14:34:00,46.0,1.0,30.45,NE,40,6.0,11.0,15,0.00,,,-99.99,,2013-01-19 22:34:00,
2013-01-19 15:24:00,46.0,2.0,30.47,NE,40,5.0,8.0,16,0.00,,,-99.99,,2013-01-19 23:24:00,
2013-01-19 15:34:00,46.0,2.0,30.47,NE,40,5.0,8.0,16,0.00,,,-99.99,,2013-01-19 23:34:00,
2013-01-19 15:44:00,46.0,2.0,30.47,NE,40,5.0,8.0,16,0.00,,,-99.99,,2013-01-19 23:44:00,
2013-01-19 15:45:00,44.0,1.0,30.48,NE,40,6.0,8.0,16,0.00,,,-99.99,,2013-01-19 23:45:00,
2013-01-19 16:24:00,44.0,1.0,30.48,NE,40,6.0,8.0,16,0.00,,,-99.99,,2013-01-20 00:24:00,
2013-01-19 16:34:00,44.0,1.0,30.48,NE,40,6.0,8.0,16,0.00,,,-99.99,,2013-01-20 00:34:00,
2013-01-19 16:45:00,42.0,0.0,30.52,North,0,0.0,1.0,17,0.00,,,-99.99,,2013-01-20 00:45:00,
2013-01-19 17:24:00,42.0,0.0,30.52,North,0,0.0,1.0,17,0.00,,,-99.99,,2013-01-20 01:24:00,
2013-01-19 17:35:00,42.0,0.0,30.52,North,0,0.0,1.0,17,0.00,,,-99.99,,2013-01-20 01:35:00,
2013-01-19 18:45:00,25.0,9.0,30.67,NE,40,1.0,2.0,50,0.00,,,-99.99,,2013-01-20 02:45:00,
2013-01-19 19:24:00,25.0,9.0,30.67,NE,40,1.0,2.0,50,0.00,,,-99.99,,2013-01-20 03:24:00,
2013-01-19 19:36:00,25.0,9.0,30.67,NE,40,1.0,2.0,50,0.00,,,-99.99,,2013-01-20 03:36:00,
2013-01-19 20:34:00,23.0,9.0,30.63,North,0,0.0,2.0,54,0.00,,,-99.99,,2013-01-20 04:34:00,
2013-01-19 20:44:00,23.0,9.0,30.63,North,0,0.0,2.0,54,0.00,,,-99.99,,2013-01-20 04:44:00,
2013-01-19 21:22:00,20.0,8.0,30.55,North,0,0.0,2.0,58,0.00,,,-99.99,,2013-01-20 05:22:00,
2013-01-19 21:32:00,20.0,8.0,30.55,North,0,0.0,2.0,58,0.00,,,-99.99,,2013-01-20 05:32:00,
2013-01-19 21:42:00,20.0,8.0,30.55,North,0,0.0,2.0,58,0.00,,,-99.99,,2013-01-20 05:42:00,
2013-01-19 22:22:00,18.0,7.0,30.44,North,-999,0.0,0.0,61,0.00,,,-99.99,,2013-01-20 06:22:00,
2013-01-19 22:33:00,18.0,7.0,30.44,North,-999,0.0,0.0,61,0.00,,,-99.99,,2013-01-20 06:33:00,
2013-01-19 22:42:00,18.0,7.0,30.44,North,-999,0.0,0.0,61,0.00,,,-99.99,,2013-01-20 06:42:00,
2013-01-19 23:22:00,16.0,6.0,30.45,North,-999,0.0,0.0,63,0.00,,,-99.99,,2013-01-20 07:22:00,
2013-01-19 23:32:00,16.0,6.0,30.45,North,-999,0.0,0.0,63,0.00,,,-99.99,,2013-01-20 07:32:00,